sensor_id;sensor_type;location;lat;lon;timestamp;temperature;humidity
72772;SHT30;60894;42.544;1.516;2023-07-09T00:00:42;20.65;58.41
72772;SHT30;60894;42.544;1.516;2023-07-09T00:03:11;20.64;58.36
72772;SHT30;60894;42.544;1.516;2023-07-09T00:05:38;20.51;60.32
72772;SHT30;60894;42.544;1.516;2023-07-09T00:08:07;20.72;58.35
72772;SHT30;60894;42.544;1.516;2023-07-09T00:10:43;20.38;60.53
72772;SHT30;60894;42.544;1.516;2023-07-09T00:13:10;20.40;60.73
72772;SHT30;60894;42.544;1.516;2023-07-09T00:15:37;20.16;60.62
72772;SHT30;60894;42.544;1.516;2023-07-09T00:18:04;20.61;59.26
72772;SHT30;60894;42.544;1.516;2023-07-09T00:20:32;20.30;60.41
72772;SHT30;60894;42.544;1.516;2023-07-09T00:22:59;20.35;60.82
72772;SHT30;60894;42.544;1.516;2023-07-09T00:25:30;20.52;59.66
72772;SHT30;60894;42.544;1.516;2023-07-09T00:28:03;20.68;58.84
72772;SHT30;60894;42.544;1.516;2023-07-09T00:30:30;20.67;59.19
72772;SHT30;60894;42.544;1.516;2023-07-09T00:32:57;20.42;60.30
72772;SHT30;60894;42.544;1.516;2023-07-09T00:35:24;20.40;60.06
72772;SHT30;60894;42.544;1.516;2023-07-09T00:37:51;20.03;61.84
72772;SHT30;60894;42.544;1.516;2023-07-09T00:40:21;20.20;61.11
72772;SHT30;60894;42.544;1.516;2023-07-09T00:42:51;20.17;61.36
72772;SHT30;60894;42.544;1.516;2023-07-09T00:45:23;20.11;62.44
72772;SHT30;60894;42.544;1.516;2023-07-09T00:47:54;19.87;63.48
72772;SHT30;60894;42.544;1.516;2023-07-09T00:50:41;19.93;62.84
72772;SHT30;60894;42.544;1.516;2023-07-09T00:53:15;20.14;61.57
72772;SHT30;60894;42.544;1.516;2023-07-09T00:55:46;20.09;61.90
72772;SHT30;60894;42.544;1.516;2023-07-09T00:58:14;20.00;62.19
72772;SHT30;60894;42.544;1.516;2023-07-09T01:00:47;20.16;61.51
72772;SHT30;60894;42.544;1.516;2023-07-09T01:03:25;20.34;60.80
72772;SHT30;60894;42.544;1.516;2023-07-09T01:05:56;19.98;62.88
72772;SHT30;60894;42.544;1.516;2023-07-09T01:08:24;19.83;63.23
72772;SHT30;60894;42.544;1.516;2023-07-09T01:10:57;20.13;61.56
72772;SHT30;60894;42.544;1.516;2023-07-09T01:13:24;19.98;62.39
72772;SHT30;60894;42.544;1.516;2023-07-09T01:15:54;19.93;62.91
72772;SHT30;60894;42.544;1.516;2023-07-09T01:18:22;20.16;61.66
72772;SHT30;60894;42.544;1.516;2023-07-09T01:20:50;19.94;63.07
72772;SHT30;60894;42.544;1.516;2023-07-09T01:23:20;19.76;63.69
72772;SHT30;60894;42.544;1.516;2023-07-09T01:25:51;20.07;62.17
72772;SHT30;60894;42.544;1.516;2023-07-09T01:28:20;20.06;62.37
72772;SHT30;60894;42.544;1.516;2023-07-09T01:30:47;20.16;62.43
72772;SHT30;60894;42.544;1.516;2023-07-09T01:33:20;19.87;63.46
72772;SHT30;60894;42.544;1.516;2023-07-09T01:35:47;19.87;62.78
72772;SHT30;60894;42.544;1.516;2023-07-09T01:38:14;19.86;63.31
72772;SHT30;60894;42.544;1.516;2023-07-09T01:40:43;19.48;64.47
72772;SHT30;60894;42.544;1.516;2023-07-09T01:43:11;19.63;64.09
72772;SHT30;60894;42.544;1.516;2023-07-09T01:45:38;19.79;63.46
72772;SHT30;60894;42.544;1.516;2023-07-09T01:48:06;19.82;63.94
72772;SHT30;60894;42.544;1.516;2023-07-09T01:50:39;19.69;64.17
72772;SHT30;60894;42.544;1.516;2023-07-09T01:53:07;19.56;64.54
72772;SHT30;60894;42.544;1.516;2023-07-09T01:55:34;19.74;63.77
72772;SHT30;60894;42.544;1.516;2023-07-09T01:58:03;19.69;64.31
72772;SHT30;60894;42.544;1.516;2023-07-09T02:00:32;19.48;64.83
72772;SHT30;60894;42.544;1.516;2023-07-09T02:03:00;19.65;65.10
72772;SHT30;60894;42.544;1.516;2023-07-09T02:05:30;19.38;65.71
72772;SHT30;60894;42.544;1.516;2023-07-09T02:07:57;19.62;63.91
72772;SHT30;60894;42.544;1.516;2023-07-09T02:10:24;19.56;65.30
72772;SHT30;60894;42.544;1.516;2023-07-09T02:12:52;19.39;65.73
72772;SHT30;60894;42.544;1.516;2023-07-09T02:15:20;19.46;65.46
72772;SHT30;60894;42.544;1.516;2023-07-09T02:17:47;19.53;65.24
72772;SHT30;60894;42.544;1.516;2023-07-09T02:20:14;19.23;66.14
72772;SHT30;60894;42.544;1.516;2023-07-09T02:22:41;19.55;64.79
72772;SHT30;60894;42.544;1.516;2023-07-09T02:25:09;19.69;64.50
72772;SHT30;60894;42.544;1.516;2023-07-09T02:27:36;19.65;65.06
72772;SHT30;60894;42.544;1.516;2023-07-09T02:30:05;19.50;65.09
72772;SHT30;60894;42.544;1.516;2023-07-09T02:32:34;19.50;65.41
72772;SHT30;60894;42.544;1.516;2023-07-09T02:35:01;19.77;64.18
72772;SHT30;60894;42.544;1.516;2023-07-09T02:37:28;19.97;63.48
72772;SHT30;60894;42.544;1.516;2023-07-09T02:39:54;19.94;63.89
72772;SHT30;60894;42.544;1.516;2023-07-09T02:42:23;19.48;65.41
72772;SHT30;60894;42.544;1.516;2023-07-09T02:44:50;19.48;65.44
72772;SHT30;60894;42.544;1.516;2023-07-09T02:47:18;19.52;65.27
72772;SHT30;60894;42.544;1.516;2023-07-09T02:49:47;19.80;63.93
72772;SHT30;60894;42.544;1.516;2023-07-09T02:52:14;19.83;63.60
72772;SHT30;60894;42.544;1.516;2023-07-09T02:54:41;19.69;64.78
72772;SHT30;60894;42.544;1.516;2023-07-09T02:57:08;19.26;66.02
72772;SHT30;60894;42.544;1.516;2023-07-09T02:59:35;19.08;66.84
72772;SHT30;60894;42.544;1.516;2023-07-09T03:02:02;19.29;65.98
72772;SHT30;60894;42.544;1.516;2023-07-09T03:04:30;19.50;64.72
72772;SHT30;60894;42.544;1.516;2023-07-09T03:06:59;19.53;65.12
72772;SHT30;60894;42.544;1.516;2023-07-09T03:09:26;19.90;63.34
72772;SHT30;60894;42.544;1.516;2023-07-09T03:11:54;19.38;65.60
72772;SHT30;60894;42.544;1.516;2023-07-09T03:14:21;19.10;66.67
72772;SHT30;60894;42.544;1.516;2023-07-09T03:16:48;18.95;67.04
72772;SHT30;60894;42.544;1.516;2023-07-09T03:19:15;18.74;67.96
72772;SHT30;60894;42.544;1.516;2023-07-09T03:21:42;19.02;66.60
72772;SHT30;60894;42.544;1.516;2023-07-09T03:24:10;19.10;66.46
72772;SHT30;60894;42.544;1.516;2023-07-09T03:26:40;19.41;65.51
72772;SHT30;60894;42.544;1.516;2023-07-09T03:29:07;19.15;66.02
72772;SHT30;60894;42.544;1.516;2023-07-09T03:31:34;19.35;65.74
72772;SHT30;60894;42.544;1.516;2023-07-09T03:34:01;19.23;65.71
72772;SHT30;60894;42.544;1.516;2023-07-09T03:36:29;19.19;65.66
72772;SHT30;60894;42.544;1.516;2023-07-09T03:38:56;19.35;65.54
72772;SHT30;60894;42.544;1.516;2023-07-09T03:41:24;19.28;65.42
72772;SHT30;60894;42.544;1.516;2023-07-09T03:43:51;19.19;65.90
72772;SHT30;60894;42.544;1.516;2023-07-09T03:46:19;19.29;65.60
72772;SHT30;60894;42.544;1.516;2023-07-09T03:48:46;19.41;64.72
72772;SHT30;60894;42.544;1.516;2023-07-09T03:51:13;19.46;64.79
72772;SHT30;60894;42.544;1.516;2023-07-09T03:53:40;19.04;65.79
72772;SHT30;60894;42.544;1.516;2023-07-09T03:56:07;19.01;66.56
72772;SHT30;60894;42.544;1.516;2023-07-09T03:58:35;18.97;66.46
72772;SHT30;60894;42.544;1.516;2023-07-09T04:01:03;18.74;66.91
72772;SHT30;60894;42.544;1.516;2023-07-09T04:03:30;18.95;66.25
72772;SHT30;60894;42.544;1.516;2023-07-09T04:05:57;18.91;66.86
72772;SHT30;60894;42.544;1.516;2023-07-09T04:08:24;19.14;65.65
72772;SHT30;60894;42.544;1.516;2023-07-09T04:10:53;18.90;65.90
72772;SHT30;60894;42.544;1.516;2023-07-09T04:13:22;19.01;65.95
72772;SHT30;60894;42.544;1.516;2023-07-09T04:15:50;18.84;67.01
72772;SHT30;60894;42.544;1.516;2023-07-09T04:18:17;19.19;65.54
72772;SHT30;60894;42.544;1.516;2023-07-09T04:20:47;19.28;65.39
72772;SHT30;60894;42.544;1.516;2023-07-09T04:23:15;19.05;65.77
72772;SHT30;60894;42.544;1.516;2023-07-09T04:25:42;18.57;65.87
72772;SHT30;60894;42.544;1.516;2023-07-09T04:28:09;18.28;66.87
72772;SHT30;60894;42.544;1.516;2023-07-09T04:30:36;18.54;66.53
72772;SHT30;60894;42.544;1.516;2023-07-09T04:33:05;19.02;65.33
72772;SHT30;60894;42.544;1.516;2023-07-09T04:35:32;18.68;65.26
72772;SHT30;60894;42.544;1.516;2023-07-09T04:37:59;18.87;65.74
72772;SHT30;60894;42.544;1.516;2023-07-09T04:40:26;19.05;64.95
72772;SHT30;60894;42.544;1.516;2023-07-09T04:42:53;19.11;64.31
72772;SHT30;60894;42.544;1.516;2023-07-09T04:45:20;19.05;64.89
72772;SHT30;60894;42.544;1.516;2023-07-09T04:47:47;18.97;65.26
72772;SHT30;60894;42.544;1.516;2023-07-09T04:50:15;19.08;65.06
72772;SHT30;60894;42.544;1.516;2023-07-09T04:52:42;19.31;64.07
72772;SHT30;60894;42.544;1.516;2023-07-09T04:55:09;19.28;64.01
72772;SHT30;60894;42.544;1.516;2023-07-09T04:57:36;19.25;63.61
72772;SHT30;60894;42.544;1.516;2023-07-09T05:00:05;19.55;63.04
72772;SHT30;60894;42.544;1.516;2023-07-09T05:02:32;19.55;62.54
72772;SHT30;60894;42.544;1.516;2023-07-09T05:04:59;19.46;63.21
72772;SHT30;60894;42.544;1.516;2023-07-09T05:07:28;19.63;62.10
72772;SHT30;60894;42.544;1.516;2023-07-09T05:09:55;19.32;63.24
72772;SHT30;60894;42.544;1.516;2023-07-09T05:12:26;19.48;63.18
72772;SHT30;60894;42.544;1.516;2023-07-09T05:14:54;19.46;63.49
72772;SHT30;60894;42.544;1.516;2023-07-09T05:17:22;19.72;62.50
72772;SHT30;60894;42.544;1.516;2023-07-09T05:19:49;19.86;61.86
72772;SHT30;60894;42.544;1.516;2023-07-09T05:22:16;19.46;62.49
72772;SHT30;60894;42.544;1.516;2023-07-09T05:24:44;19.28;63.28
72772;SHT30;60894;42.544;1.516;2023-07-09T05:27:11;19.35;62.99
72772;SHT30;60894;42.544;1.516;2023-07-09T05:29:38;19.43;62.73
72772;SHT30;60894;42.544;1.516;2023-07-09T05:32:06;19.19;63.26
72772;SHT30;60894;42.544;1.516;2023-07-09T05:34:33;19.29;63.41
72772;SHT30;60894;42.544;1.516;2023-07-09T05:37:00;18.85;64.57
72772;SHT30;60894;42.544;1.516;2023-07-09T05:39:27;18.77;65.19
72772;SHT30;60894;42.544;1.516;2023-07-09T05:41:55;18.74;65.38
72772;SHT30;60894;42.544;1.516;2023-07-09T05:44:22;18.90;64.50
72772;SHT30;60894;42.544;1.516;2023-07-09T05:46:49;19.11;63.64
72772;SHT30;60894;42.544;1.516;2023-07-09T05:49:16;18.95;64.45
72772;SHT30;60894;42.544;1.516;2023-07-09T05:51:43;19.02;63.77
72772;SHT30;60894;42.544;1.516;2023-07-09T05:54:10;18.90;64.20
72772;SHT30;60894;42.544;1.516;2023-07-09T05:56:37;18.84;64.91
72772;SHT30;60894;42.544;1.516;2023-07-09T05:59:06;18.97;64.57
72772;SHT30;60894;42.544;1.516;2023-07-09T06:01:35;19.14;63.91
72772;SHT30;60894;42.544;1.516;2023-07-09T06:04:02;18.95;64.23
72772;SHT30;60894;42.544;1.516;2023-07-09T06:06:30;19.05;64.48
72772;SHT30;60894;42.544;1.516;2023-07-09T06:08:57;18.97;63.70
72772;SHT30;60894;42.544;1.516;2023-07-09T06:11:24;19.14;63.89
72772;SHT30;60894;42.544;1.516;2023-07-09T06:13:51;19.11;64.07
72772;SHT30;60894;42.544;1.516;2023-07-09T06:16:19;19.00;64.08
72772;SHT30;60894;42.544;1.516;2023-07-09T06:18:46;19.04;63.90
72772;SHT30;60894;42.544;1.516;2023-07-09T06:21:13;19.15;63.86
72772;SHT30;60894;42.544;1.516;2023-07-09T06:23:40;19.08;63.92
72772;SHT30;60894;42.544;1.516;2023-07-09T06:26:07;18.97;64.01
72772;SHT30;60894;42.544;1.516;2023-07-09T06:28:34;18.91;64.28
72772;SHT30;60894;42.544;1.516;2023-07-09T06:31:02;19.25;63.80
72772;SHT30;60894;42.544;1.516;2023-07-09T06:33:30;19.18;64.14
72772;SHT30;60894;42.544;1.516;2023-07-09T06:35:58;19.18;64.61
72772;SHT30;60894;42.544;1.516;2023-07-09T06:38:26;19.29;64.03
72772;SHT30;60894;42.544;1.516;2023-07-09T06:40:53;19.48;63.26
72772;SHT30;60894;42.544;1.516;2023-07-09T06:43:20;19.46;63.48
72772;SHT30;60894;42.544;1.516;2023-07-09T06:45:55;19.43;63.36
72772;SHT30;60894;42.544;1.516;2023-07-09T06:48:23;19.50;63.48
72772;SHT30;60894;42.544;1.516;2023-07-09T06:50:52;19.53;63.18
72772;SHT30;60894;42.544;1.516;2023-07-09T06:53:20;19.56;62.61
72772;SHT30;60894;42.544;1.516;2023-07-09T06:55:47;19.62;62.56
72772;SHT30;60894;42.544;1.516;2023-07-09T06:58:15;19.66;62.92
72772;SHT30;60894;42.544;1.516;2023-07-09T07:00:42;19.69;62.82
72772;SHT30;60894;42.544;1.516;2023-07-09T07:03:10;19.93;62.13
72772;SHT30;60894;42.544;1.516;2023-07-09T07:05:37;19.97;62.00
72772;SHT30;60894;42.544;1.516;2023-07-09T07:08:07;20.09;61.55
72772;SHT30;60894;42.544;1.516;2023-07-09T07:10:34;20.22;61.29
72772;SHT30;60894;42.544;1.516;2023-07-09T07:13:01;20.40;60.94
72772;SHT30;60894;42.544;1.516;2023-07-09T07:15:28;20.48;60.79
72772;SHT30;60894;42.544;1.516;2023-07-09T07:17:55;20.49;60.47
72772;SHT30;60894;42.544;1.516;2023-07-09T07:20:22;20.59;59.93
72772;SHT30;60894;42.544;1.516;2023-07-09T07:22:49;20.75;59.42
72772;SHT30;60894;42.544;1.516;2023-07-09T07:25:18;20.79;58.81
72772;SHT30;60894;42.544;1.516;2023-07-09T07:27:44;20.85;58.71
72772;SHT30;60894;42.544;1.516;2023-07-09T07:30:12;20.95;57.76
72772;SHT30;60894;42.544;1.516;2023-07-09T07:32:45;21.03;57.46
72772;SHT30;60894;42.544;1.516;2023-07-09T07:35:13;21.02;57.28
72772;SHT30;60894;42.544;1.516;2023-07-09T07:37:40;21.19;56.70
72772;SHT30;60894;42.544;1.516;2023-07-09T07:40:08;21.34;55.56
72772;SHT30;60894;42.544;1.516;2023-07-09T07:42:37;21.43;55.78
72772;SHT30;60894;42.544;1.516;2023-07-09T07:45:05;21.47;55.71
72772;SHT30;60894;42.544;1.516;2023-07-09T07:47:33;21.44;55.85
72772;SHT30;60894;42.544;1.516;2023-07-09T07:50:00;21.58;56.33
72772;SHT30;60894;42.544;1.516;2023-07-09T07:52:27;21.60;57.47
72772;SHT30;60894;42.544;1.516;2023-07-09T07:54:54;21.54;55.29
72772;SHT30;60894;42.544;1.516;2023-07-09T07:57:23;21.70;57.76
72772;SHT30;60894;42.544;1.516;2023-07-09T07:59:51;21.67;56.62
72772;SHT30;60894;42.544;1.516;2023-07-09T08:02:18;21.77;58.36
72772;SHT30;60894;42.544;1.516;2023-07-09T08:04:45;21.92;57.30
72772;SHT30;60894;42.544;1.516;2023-07-09T08:07:12;21.97;56.07
72772;SHT30;60894;42.544;1.516;2023-07-09T08:09:39;22.05;55.71
72772;SHT30;60894;42.544;1.516;2023-07-09T08:12:07;22.16;56.19
72772;SHT30;60894;42.544;1.516;2023-07-09T08:14:38;22.23;55.91
72772;SHT30;60894;42.544;1.516;2023-07-09T08:17:07;22.38;55.05
72772;SHT30;60894;42.544;1.516;2023-07-09T08:19:44;22.55;55.21
72772;SHT30;60894;42.544;1.516;2023-07-09T08:22:11;22.62;53.47
72772;SHT30;60894;42.544;1.516;2023-07-09T08:24:39;22.72;53.63
72772;SHT30;60894;42.544;1.516;2023-07-09T08:27:06;22.77;53.98
72772;SHT30;60894;42.544;1.516;2023-07-09T08:29:34;22.79;53.62
72772;SHT30;60894;42.544;1.516;2023-07-09T08:32:01;22.93;54.30
72772;SHT30;60894;42.544;1.516;2023-07-09T08:34:30;23.11;53.46
72772;SHT30;60894;42.544;1.516;2023-07-09T08:36:57;23.34;51.95
72772;SHT30;60894;42.544;1.516;2023-07-09T08:39:24;23.51;52.22
72772;SHT30;60894;42.544;1.516;2023-07-09T08:41:54;23.71;50.55
72772;SHT30;60894;42.544;1.516;2023-07-09T08:44:42;23.89;50.79
72772;SHT30;60894;42.544;1.516;2023-07-09T08:47:18;24.05;49.98
72772;SHT30;60894;42.544;1.516;2023-07-09T08:49:51;24.19;49.37
72772;SHT30;60894;42.544;1.516;2023-07-09T08:52:26;24.41;49.33
72772;SHT30;60894;42.544;1.516;2023-07-09T08:54:55;24.54;48.43
72772;SHT30;60894;42.544;1.516;2023-07-09T08:57:27;24.74;47.05
72772;SHT30;60894;42.544;1.516;2023-07-09T08:59:59;24.83;48.20
72772;SHT30;60894;42.544;1.516;2023-07-09T09:02:34;24.96;47.77
72772;SHT30;60894;42.544;1.516;2023-07-09T09:05:04;25.16;45.48
72772;SHT30;60894;42.544;1.516;2023-07-09T09:07:39;25.35;45.72
72772;SHT30;60894;42.544;1.516;2023-07-09T09:10:11;25.52;43.87
72772;SHT30;60894;42.544;1.516;2023-07-09T09:12:43;25.79;42.74
72772;SHT30;60894;42.544;1.516;2023-07-09T09:15:15;26.07;42.13
72772;SHT30;60894;42.544;1.516;2023-07-09T09:17:43;26.18;40.98
72772;SHT30;60894;42.544;1.516;2023-07-09T09:20:17;26.31;40.80
72772;SHT30;60894;42.544;1.516;2023-07-09T09:22:47;26.45;40.74
72772;SHT30;60894;42.544;1.516;2023-07-09T09:25:23;26.59;40.55
72772;SHT30;60894;42.544;1.516;2023-07-09T09:27:52;26.74;39.83
72772;SHT30;60894;42.544;1.516;2023-07-09T09:30:22;26.88;40.26
72772;SHT30;60894;42.544;1.516;2023-07-09T09:32:54;26.89;39.38
72772;SHT30;60894;42.544;1.516;2023-07-09T09:35:28;27.09;38.92
72772;SHT30;60894;42.544;1.516;2023-07-09T09:37:57;27.19;39.20
72772;SHT30;60894;42.544;1.516;2023-07-09T09:40:27;27.26;37.80
72772;SHT30;60894;42.544;1.516;2023-07-09T09:42:56;27.30;37.72
72772;SHT30;60894;42.544;1.516;2023-07-09T09:45:27;27.39;38.49
72772;SHT30;60894;42.544;1.516;2023-07-09T09:47:59;27.40;38.09
72772;SHT30;60894;42.544;1.516;2023-07-09T09:50:31;27.42;37.99
72772;SHT30;60894;42.544;1.516;2023-07-09T09:52:59;27.60;37.86
72772;SHT30;60894;42.544;1.516;2023-07-09T09:55:30;27.70;38.69
72772;SHT30;60894;42.544;1.516;2023-07-09T09:57:59;27.80;37.79
72772;SHT30;60894;42.544;1.516;2023-07-09T10:00:29;27.84;39.01
72772;SHT30;60894;42.544;1.516;2023-07-09T10:02:59;27.88;36.76
72772;SHT30;60894;42.544;1.516;2023-07-09T10:05:32;27.91;37.54
72772;SHT30;60894;42.544;1.516;2023-07-09T10:08:03;27.95;36.99
72772;SHT30;60894;42.544;1.516;2023-07-09T10:10:33;28.09;35.38
72772;SHT30;60894;42.544;1.516;2023-07-09T10:13:07;28.22;35.42
72772;SHT30;60894;42.544;1.516;2023-07-09T10:15:43;28.26;34.70
72772;SHT30;60894;42.544;1.516;2023-07-09T10:18:22;28.16;34.36
72772;SHT30;60894;42.544;1.516;2023-07-09T10:21:04;28.31;34.84
72772;SHT30;60894;42.544;1.516;2023-07-09T10:23:37;28.56;34.54
72772;SHT30;60894;42.544;1.516;2023-07-09T10:26:10;28.76;34.45
72772;SHT30;60894;42.544;1.516;2023-07-09T10:28:56;28.70;31.82
72772;SHT30;60894;42.544;1.516;2023-07-09T10:31:32;28.87;33.44
72772;SHT30;60894;42.544;1.516;2023-07-09T10:34:14;29.03;33.91
72772;SHT30;60894;42.544;1.516;2023-07-09T10:37:00;28.94;34.06
72772;SHT30;60894;42.544;1.516;2023-07-09T10:39:34;28.93;34.08
72772;SHT30;60894;42.544;1.516;2023-07-09T10:42:02;28.96;34.03
72772;SHT30;60894;42.544;1.516;2023-07-09T10:44:34;29.11;34.20
72772;SHT30;60894;42.544;1.516;2023-07-09T10:47:05;29.30;34.03
72772;SHT30;60894;42.544;1.516;2023-07-09T10:49:37;29.41;33.03
72772;SHT30;60894;42.544;1.516;2023-07-09T10:52:10;29.38;32.54
72772;SHT30;60894;42.544;1.516;2023-07-09T10:54:42;29.44;33.32
72772;SHT30;60894;42.544;1.516;2023-07-09T10:57:16;29.44;32.97
72772;SHT30;60894;42.544;1.516;2023-07-09T10:59:46;29.54;33.05
72772;SHT30;60894;42.544;1.516;2023-07-09T11:02:19;29.51;32.18
72772;SHT30;60894;42.544;1.516;2023-07-09T11:04:51;29.81;32.83
72772;SHT30;60894;42.544;1.516;2023-07-09T11:07:26;30.01;31.87
72772;SHT30;60894;42.544;1.516;2023-07-09T11:09:56;30.17;32.04
72772;SHT30;60894;42.544;1.516;2023-07-09T11:12:29;30.12;31.03
72772;SHT30;60894;42.544;1.516;2023-07-09T11:15:00;30.02;31.96
72772;SHT30;60894;42.544;1.516;2023-07-09T11:17:29;30.41;31.60
72772;SHT30;60894;42.544;1.516;2023-07-09T11:20:00;30.27;28.48
72772;SHT30;60894;42.544;1.516;2023-07-09T11:22:37;30.61;29.44
72772;SHT30;60894;42.544;1.516;2023-07-09T11:25:09;30.76;30.56
72772;SHT30;60894;42.544;1.516;2023-07-09T11:27:48;30.85;30.46
72772;SHT30;60894;42.544;1.516;2023-07-09T11:30:20;30.97;29.09
72772;SHT30;60894;42.544;1.516;2023-07-09T11:32:53;30.78;28.75
72772;SHT30;60894;42.544;1.516;2023-07-09T11:35:22;30.48;30.05
72772;SHT30;60894;42.544;1.516;2023-07-09T11:37:51;30.68;31.25
72772;SHT30;60894;42.544;1.516;2023-07-09T11:40:20;30.60;29.91
72772;SHT30;60894;42.544;1.516;2023-07-09T11:42:53;30.73;30.36
72772;SHT30;60894;42.544;1.516;2023-07-09T11:45:24;30.81;30.10
72772;SHT30;60894;42.544;1.516;2023-07-09T11:47:55;30.97;30.72
72772;SHT30;60894;42.544;1.516;2023-07-09T11:50:31;31.18;30.05
72772;SHT30;60894;42.544;1.516;2023-07-09T11:53:04;31.29;29.42
72772;SHT30;60894;42.544;1.516;2023-07-09T11:55:39;31.34;30.20
72772;SHT30;60894;42.544;1.516;2023-07-09T11:58:10;31.19;30.09
72772;SHT30;60894;42.544;1.516;2023-07-09T12:00:38;31.01;30.07
72772;SHT30;60894;42.544;1.516;2023-07-09T12:03:07;31.11;30.04
72772;SHT30;60894;42.544;1.516;2023-07-09T12:05:38;30.74;28.01
72772;SHT30;60894;42.544;1.516;2023-07-09T12:08:07;31.12;29.89
72772;SHT30;60894;42.544;1.516;2023-07-09T12:10:36;31.45;29.86
72772;SHT30;60894;42.544;1.516;2023-07-09T12:13:03;31.67;29.30
72772;SHT30;60894;42.544;1.516;2023-07-09T12:15:30;32.06;29.60
72772;SHT30;60894;42.544;1.516;2023-07-09T12:17:59;32.50;28.88
72772;SHT30;60894;42.544;1.516;2023-07-09T12:20:30;32.40;28.72
72772;SHT30;60894;42.544;1.516;2023-07-09T12:22:57;32.34;28.85
72772;SHT30;60894;42.544;1.516;2023-07-09T12:25:27;32.48;29.17
72772;SHT30;60894;42.544;1.516;2023-07-09T12:27:57;32.09;28.91
72772;SHT30;60894;42.544;1.516;2023-07-09T12:30:25;32.10;29.34
72772;SHT30;60894;42.544;1.516;2023-07-09T12:32:52;32.06;29.44
72772;SHT30;60894;42.544;1.516;2023-07-09T12:35:19;32.34;28.68
72772;SHT30;60894;42.544;1.516;2023-07-09T12:37:48;32.43;28.91
72772;SHT30;60894;42.544;1.516;2023-07-09T12:40:21;32.26;29.60
72772;SHT30;60894;42.544;1.516;2023-07-09T12:42:50;32.12;29.33
72772;SHT30;60894;42.544;1.516;2023-07-09T12:45:18;31.58;29.20
72772;SHT30;60894;42.544;1.516;2023-07-09T12:47:46;31.98;29.51
72772;SHT30;60894;42.544;1.516;2023-07-09T12:50:29;32.03;29.38
72772;SHT30;60894;42.544;1.516;2023-07-09T12:53:01;32.13;28.57
72772;SHT30;60894;42.544;1.516;2023-07-09T12:55:29;32.38;28.62
72772;SHT30;60894;42.544;1.516;2023-07-09T12:58:08;32.50;28.40
72772;SHT30;60894;42.544;1.516;2023-07-09T13:00:36;32.99;28.18
72772;SHT30;60894;42.544;1.516;2023-07-09T13:03:03;32.40;27.23
72772;SHT30;60894;42.544;1.516;2023-07-09T13:05:38;33.26;27.25
72772;SHT30;60894;42.544;1.516;2023-07-09T13:08:14;33.32;26.70
72772;SHT30;60894;42.544;1.516;2023-07-09T13:10:41;33.49;28.42
72772;SHT30;60894;42.544;1.516;2023-07-09T13:13:13;33.55;28.37
72772;SHT30;60894;42.544;1.516;2023-07-09T13:15:42;33.43;28.42
72772;SHT30;60894;42.544;1.516;2023-07-09T13:18:11;33.30;27.53
72772;SHT30;60894;42.544;1.516;2023-07-09T13:20:40;33.76;27.04
72772;SHT30;60894;42.544;1.516;2023-07-09T13:23:11;33.81;27.78
72772;SHT30;60894;42.544;1.516;2023-07-09T13:25:40;33.63;28.51
72772;SHT30;60894;42.544;1.516;2023-07-09T13:28:15;33.06;28.95
72772;SHT30;60894;42.544;1.516;2023-07-09T13:30:43;33.02;29.38
72772;SHT30;60894;42.544;1.516;2023-07-09T13:33:10;33.45;29.60
72772;SHT30;60894;42.544;1.516;2023-07-09T13:35:38;33.21;28.95
72772;SHT30;60894;42.544;1.516;2023-07-09T13:38:12;33.11;28.70
72772;SHT30;60894;42.544;1.516;2023-07-09T13:40:39;32.91;29.44
72772;SHT30;60894;42.544;1.516;2023-07-09T13:43:12;32.71;29.66
72772;SHT30;60894;42.544;1.516;2023-07-09T13:45:39;33.01;29.95
72772;SHT30;60894;42.544;1.516;2023-07-09T13:48:13;33.02;29.57
72772;SHT30;60894;42.544;1.516;2023-07-09T13:50:41;32.94;28.74
72772;SHT30;60894;42.544;1.516;2023-07-09T13:53:13;33.15;30.04
72772;SHT30;60894;42.544;1.516;2023-07-09T13:55:41;33.27;29.87
72772;SHT30;60894;42.544;1.516;2023-07-09T13:58:09;32.88;29.67
72772;SHT30;60894;42.544;1.516;2023-07-09T14:00:38;33.06;29.70
72772;SHT30;60894;42.544;1.516;2023-07-09T14:03:14;32.86;29.54
72772;SHT30;60894;42.544;1.516;2023-07-09T14:05:41;32.84;30.19
72772;SHT30;60894;42.544;1.516;2023-07-09T14:08:09;32.84;30.26
72772;SHT30;60894;42.544;1.516;2023-07-09T14:10:36;32.37;30.13
72772;SHT30;60894;42.544;1.516;2023-07-09T14:13:03;32.68;30.19
72772;SHT30;60894;42.544;1.516;2023-07-09T14:15:30;32.75;30.13
72772;SHT30;60894;42.544;1.516;2023-07-09T14:17:59;32.65;29.70
72772;SHT30;60894;42.544;1.516;2023-07-09T14:20:26;32.45;29.93
72772;SHT30;60894;42.544;1.516;2023-07-09T14:22:53;32.26;30.45
72772;SHT30;60894;42.544;1.516;2023-07-09T14:25:23;32.26;30.85
72772;SHT30;60894;42.544;1.516;2023-07-09T14:27:52;32.04;31.50
72772;SHT30;60894;42.544;1.516;2023-07-09T14:30:21;32.04;31.53
72772;SHT30;60894;42.544;1.516;2023-07-09T14:32:50;32.14;31.53
72772;SHT30;60894;42.544;1.516;2023-07-09T14:35:22;32.64;30.86
72772;SHT30;60894;42.544;1.516;2023-07-09T14:37:51;32.94;30.20
72772;SHT30;60894;42.544;1.516;2023-07-09T14:40:19;32.60;30.24
72772;SHT30;60894;42.544;1.516;2023-07-09T14:42:47;32.82;30.08
72772;SHT30;60894;42.544;1.516;2023-07-09T14:45:18;32.63;30.94
72772;SHT30;60894;42.544;1.516;2023-07-09T14:47:45;32.47;31.16
72772;SHT30;60894;42.544;1.516;2023-07-09T14:50:13;32.54;30.63
72772;SHT30;60894;42.544;1.516;2023-07-09T14:52:42;32.71;30.79
72772;SHT30;60894;42.544;1.516;2023-07-09T14:55:14;32.70;30.74
72772;SHT30;60894;42.544;1.516;2023-07-09T14:57:41;32.43;30.76
72772;SHT30;60894;42.544;1.516;2023-07-09T15:00:13;32.24;31.19
72772;SHT30;60894;42.544;1.516;2023-07-09T15:02:41;31.96;31.63
72772;SHT30;60894;42.544;1.516;2023-07-09T15:05:13;31.75;32.15
72772;SHT30;60894;42.544;1.516;2023-07-09T15:07:41;31.28;32.67
72772;SHT30;60894;42.544;1.516;2023-07-09T15:10:13;31.35;32.83
72772;SHT30;60894;42.544;1.516;2023-07-09T15:12:40;32.09;31.61
72772;SHT30;60894;42.544;1.516;2023-07-09T15:15:15;32.26;31.72
72772;SHT30;60894;42.544;1.516;2023-07-09T15:17:43;32.65;31.23
72772;SHT30;60894;42.544;1.516;2023-07-09T15:20:13;32.43;31.05
72772;SHT30;60894;42.544;1.516;2023-07-09T15:22:42;32.55;31.10
72772;SHT30;60894;42.544;1.516;2023-07-09T15:25:13;32.20;31.10
72772;SHT30;60894;42.544;1.516;2023-07-09T15:27:40;32.19;31.07
72772;SHT30;60894;42.544;1.516;2023-07-09T15:30:13;32.57;30.52
72772;SHT30;60894;42.544;1.516;2023-07-09T15:32:40;33.02;29.99
72772;SHT30;60894;42.544;1.516;2023-07-09T15:35:08;33.26;30.08
72772;SHT30;60894;42.544;1.516;2023-07-09T15:37:35;33.60;29.88
72772;SHT30;60894;42.544;1.516;2023-07-09T15:40:05;33.80;30.08
72772;SHT30;60894;42.544;1.516;2023-07-09T15:42:39;34.15;29.29